Time;durP1;ratioP1;P1;durP2;ratioP2;P2;SDS_P1;SDS_P2;PMS_P1;PMS_P2;Temp;Humidity;BMP_temperature;BMP_pressure;BME280_temperature;BME280_humidity;BME280_pressure;Samples;Min_cycle;Max_cycle;Signal;HPM_P1;HPM_P2
2022/06/07 00:01:32;;;;;;;2.60;2.05;;;19.00;47.20;;;;;;6194913;23;20137;-88
2022/06/07 00:03:58;;;;;;;2.80;2.40;;;19.00;47.30;;;;;;6219754;23;20644;-87
2022/06/07 00:06:23;;;;;;;2.58;2.17;;;19.00;47.20;;;;;;6169898;23;20142;-87
2022/06/07 00:08:51;;;;;;;2.58;2.22;;;19.00;47.30;;;;;;6194489;23;20168;-87
2022/06/07 00:11:18;;;;;;;4.25;2.35;;;19.00;47.30;;;;;;6171267;23;20449;-87
2022/06/07 00:13:45;;;;;;;3.08;2.70;;;18.90;47.20;;;;;;6170217;23;20149;-87
2022/06/07 00:16:11;;;;;;;2.60;2.28;;;19.10;47.40;;;;;;6170372;23;20600;-87
2022/06/07 00:18:37;;;;;;;2.55;2.20;;;19.00;47.30;;;;;;6169748;23;20453;-87
2022/06/07 00:21:03;;;;;;;2.50;2.30;;;18.90;47.30;;;;;;6194686;23;20133;-87
2022/06/07 00:23:29;;;;;;;2.55;2.35;;;19.00;47.30;;;;;;6219340;23;20129;-87
2022/06/07 00:25:55;;;;;;;3.40;2.60;;;19.00;47.30;;;;;;6194867;23;20167;-87
2022/06/07 00:28:21;;;;;;;3.25;2.30;;;19.00;47.40;;;;;;6194552;23;20205;-87
2022/06/07 00:30:46;;;;;;;3.15;2.50;;;19.00;47.50;;;;;;6219500;23;20161;-87
2022/06/07 00:33:12;;;;;;;4.10;2.40;;;19.00;47.50;;;;;;6170148;23;20439;-87
2022/06/07 00:35:38;;;;;;;2.90;2.40;;;18.90;47.40;;;;;;6195159;23;20214;-86
2022/06/07 00:38:05;;;;;;;3.92;2.42;;;18.90;47.40;;;;;;6169426;23;20630;-87
2022/06/07 00:40:31;;;;;;;2.50;2.22;;;18.90;47.40;;;;;;6170490;23;20565;-87
2022/06/07 00:42:57;;;;;;;2.60;2.40;;;19.00;47.50;;;;;;6170013;23;20141;-87
2022/06/07 00:45:23;;;;;;;3.42;2.38;;;19.00;47.50;;;;;;6194429;23;20144;-87
2022/06/07 00:47:49;;;;;;;3.58;2.70;;;18.90;47.50;;;;;;6219834;23;20213;-87
2022/06/07 00:50:26;;;;;;;2.47;2.22;;;19.00;47.50;;;;;;6194146;23;20248;-87
2022/06/07 00:52:52;;;;;;;2.70;1.98;;;18.90;47.50;;;;;;6171748;23;20522;-87
2022/06/07 00:55:18;;;;;;;2.60;2.30;;;18.90;47.50;;;;;;6194864;23;20205;-87
2022/06/07 00:57:44;;;;;;;2.97;2.53;;;19.00;47.50;;;;;;6219398;23;20134;-87
2022/06/07 01:00:11;;;;;;;2.60;2.40;;;18.90;47.50;;;;;;6169425;23;20145;-87
2022/06/07 01:02:37;;;;;;;2.45;2.22;;;18.90;47.50;;;;;;6193805;23;20146;-87
2022/06/07 01:05:03;;;;;;;2.38;2.17;;;18.90;47.50;;;;;;6169604;23;20168;-87
2022/06/07 01:12:46;;;;;;;2.80;2.42;;;18.90;47.60;;;;;;6200425;23;20133;-87
2022/06/07 01:15:12;;;;;;;2.58;2.30;;;18.90;47.60;;;;;;6219250;23;20539;-87
2022/06/07 01:17:37;;;;;;;2.55;2.20;;;18.90;47.60;;;;;;6169527;23;20172;-87
2022/06/07 01:20:04;;;;;;;2.33;2.00;;;18.90;47.70;;;;;;6169201;23;20156;-87
2022/06/07 01:22:30;;;;;;;3.08;2.67;;;18.90;47.70;;;;;;6169665;23;20181;-88
2022/06/07 01:24:56;;;;;;;2.65;2.35;;;18.90;48.30;;;;;;6219234;23;20521;-87
2022/06/07 01:27:21;;;;;;;2.92;2.22;;;18.90;47.60;;;;;;6194740;23;20138;-87
2022/06/07 01:29:47;;;;;;;2.53;2.25;;;18.90;47.60;;;;;;6219171;23;20172;-87
2022/06/07 01:32:13;;;;;;;3.33;2.17;;;18.90;47.70;;;;;;6219526;23;20134;-87
2022/06/07 01:34:42;;;;;;;2.72;2.40;;;18.90;47.70;;;;;;6195121;23;20149;-87
2022/06/07 01:37:08;;;;;;;2.30;2.10;;;18.90;47.70;;;;;;6196977;23;20213;-87
2022/06/07 01:42:17;;;;;;;2.50;2.22;;;18.90;47.80;;;;;;6203179;23;20145;-87
2022/06/07 01:44:44;;;;;;;2.42;2.20;;;18.90;47.80;;;;;;6196060;23;20138;-87
2022/06/07 01:47:12;;;;;;;2.70;2.30;;;18.90;47.80;;;;;;6171319;23;20156;-88
2022/06/07 01:49:38;;;;;;;2.63;2.42;;;18.90;47.80;;;;;;6196366;23;20215;-87
2022/06/07 01:52:04;;;;;;;3.08;2.33;;;18.80;47.70;;;;;;6221149;23;20130;-87
2022/06/07 01:54:30;;;;;;;2.55;2.30;;;18.90;47.80;;;;;;6196506;23;20550;-87
2022/06/07 01:56:56;;;;;;;2.28;2.08;;;18.90;47.90;;;;;;6195911;23;20164;-87
2022/06/07 01:59:21;;;;;;;3.35;2.30;;;18.90;47.90;;;;;;6196308;23;20133;-87
2022/06/07 02:01:47;;;;;;;3.22;2.58;;;18.80;47.80;;;;;;6196005;23;20129;-87
2022/06/07 02:04:13;;;;;;;2.97;2.50;;;18.90;47.80;;;;;;6171134;23;20193;-87
2022/06/07 02:06:39;;;;;;;3.30;2.47;;;18.90;48.00;;;;;;6170817;23;20524;-87
2022/06/07 02:09:06;;;;;;;2.55;2.28;;;18.80;47.90;;;;;;6171284;23;20256;-87
2022/06/07 02:11:32;;;;;;;2.75;2.38;;;18.90;48.00;;;;;;6172474;23;20148;-87
2022/06/07 02:13:58;;;;;;;2.53;2.33;;;18.80;47.90;;;;;;6171053;23;20142;-87
2022/06/07 02:16:23;;;;;;;2.78;2.40;;;18.80;48.00;;;;;;6171158;23;20165;-87
2022/06/07 02:18:49;;;;;;;2.85;2.33;;;18.80;48.00;;;;;;6195896;23;20130;-88
2022/06/07 02:21:16;;;;;;;2.80;2.50;;;18.80;48.00;;;;;;6170919;23;20239;-87
2022/06/07 02:23:42;;;;;;;3.00;2.30;;;18.80;48.00;;;;;;6171072;23;20224;-87
2022/06/07 02:26:13;;;;;;;2.38;2.17;;;18.80;48.00;;;;;;6220572;23;20153;-87
2022/06/07 02:28:40;;;;;;;2.90;2.33;;;18.80;48.00;;;;;;6196427;23;20573;-87
2022/06/07 02:31:06;;;;;;;2.83;2.53;;;18.80;48.00;;;;;;6195844;23;20146;-87
2022/06/07 02:33:32;;;;;;;2.50;2.28;;;18.80;48.00;;;;;;6170758;23;20533;-87
2022/06/07 02:35:58;;;;;;;2.60;2.30;;;18.80;48.10;;;;;;6195708;23;20465;-87
2022/06/07 02:38:24;;;;;;;3.15;2.28;;;18.80;48.10;;;;;;6171193;23;20142;-87
2022/06/07 02:40:50;;;;;;;2.90;2.60;;;18.80;48.10;;;;;;6195607;23;20137;-87
2022/06/07 02:43:15;;;;;;;2.42;2.22;;;18.70;48.00;;;;;;6195542;23;20137;-87
2022/06/07 02:45:41;;;;;;;2.50;2.30;;;18.80;48.10;;;;;;6247219;23;20217;-87
2022/06/07 02:48:07;;;;;;;2.35;2.15;;;18.90;48.20;;;;;;6220547;23;20133;-87
2022/06/07 02:50:33;;;;;;;2.33;2.10;;;18.80;48.10;;;;;;6195820;23;20172;-87
2022/06/07 02:52:59;;;;;;;2.70;2.08;;;18.80;48.20;;;;;;6220562;23;20174;-87
2022/06/07 02:55:25;;;;;;;3.28;2.42;;;18.80;48.20;;;;;;6195960;23;20149;-87
2022/06/07 02:57:51;;;;;;;2.38;2.17;;;18.80;48.20;;;;;;6195213;23;20149;-87
2022/06/07 03:00:17;;;;;;;2.40;2.20;;;18.80;48.20;;;;;;6220311;23;20141;-87
2022/06/07 03:02:43;;;;;;;2.38;2.10;;;18.80;48.30;;;;;;6170351;23;20580;-87
2022/06/07 03:05:10;;;;;;;2.65;2.42;;;18.80;48.30;;;;;;6170131;23;20160;-87
2022/06/07 03:07:37;;;;;;;2.90;2.40;;;18.80;48.30;;;;;;6171751;23;20187;-87
2022/06/07 03:10:04;;;;;;;2.55;2.33;;;18.80;48.30;;;;;;6195574;23;20188;-87
2022/06/07 03:12:30;;;;;;;2.58;2.38;;;18.80;48.30;;;;;;6220333;23;20133;-87
2022/06/07 03:14:55;;;;;;;2.65;2.17;;;18.80;48.30;;;;;;6170513;23;20627;-87
2022/06/07 03:17:21;;;;;;;3.53;2.45;;;18.70;48.30;;;;;;6247160;23;20208;-87
2022/06/07 03:19:47;;;;;;;2.70;2.30;;;18.80;48.40;;;;;;6219899;23;20149;-88
2022/06/07 03:22:14;;;;;;;3.15;2.10;;;18.80;48.40;;;;;;6220299;23;20207;-87
2022/06/07 03:24:40;;;;;;;2.50;2.30;;;18.80;48.40;;;;;;6195187;23;20157;-87
2022/06/07 03:27:05;;;;;;;2.50;2.30;;;18.80;49.10;;;;;;6220284;23;20180;-87
2022/06/07 03:29:31;;;;;;;2.85;2.28;;;18.70;48.30;;;;;;6246679;23;20157;-87
2022/06/07 03:31:57;;;;;;;2.60;2.30;;;18.80;48.40;;;;;;6194967;23;20209;-88
2022/06/07 03:34:22;;;;;;;2.60;2.28;;;18.80;48.40;;;;;;6195351;23;20134;-87
2022/06/07 03:36:48;;;;;;;3.08;2.30;;;18.80;48.30;;;;;;6194734;23;20202;-87
2022/06/07 03:39:14;;;;;;;3.13;2.20;;;18.80;48.30;;;;;;6194825;23;20157;-87
2022/06/07 03:41:39;;;;;;;2.50;2.30;;;18.80;48.30;;;;;;6246689;23;20204;-88
2022/06/07 03:44:05;;;;;;;2.15;1.90;;;18.80;48.30;;;;;;6194883;23;20156;-88
2022/06/07 03:46:32;;;;;;;2.60;2.20;;;18.80;48.40;;;;;;6170251;23;20683;-88
2022/06/07 03:48:59;;;;;;;2.90;2.28;;;18.80;48.30;;;;;;6195537;23;20162;-88
2022/06/07 03:51:25;;;;;;;2.15;1.95;;;18.80;48.20;;;;;;6170155;23;20146;-87
2022/06/07 03:53:51;;;;;;;3.35;2.40;;;19.00;48.20;;;;;;6170401;23;20173;-88
2022/06/07 03:56:17;;;;;;;2.35;2.10;;;18.90;48.20;;;;;;6194790;23;20136;-87
2022/06/07 03:58:43;;;;;;;3.33;2.03;;;18.90;48.20;;;;;;6194283;23;20134;-89
2022/06/07 04:01:11;;;;;;;2.90;2.33;;;18.90;48.20;;;;;;6219871;23;20457;-89
2022/06/07 04:03:36;;;;;;;2.78;2.25;;;19.00;48.20;;;;;;6169749;23;20197;-88
2022/06/07 04:06:02;;;;;;;2.25;2.00;;;19.00;48.10;;;;;;6195040;23;20149;-88
2022/06/07 04:08:28;;;;;;;2.78;2.10;;;19.10;48.10;;;;;;6169508;23;20145;-88
2022/06/07 04:10:56;;;;;;;3.05;2.10;;;19.00;48.00;;;;;;6219950;23;20172;-87
2022/06/07 04:13:23;;;;;;;3.50;2.17;;;19.10;48.00;;;;;;6195412;23;20126;-87
2022/06/07 04:15:49;;;;;;;2.10;1.90;;;19.10;47.90;;;;;;6195264;23;20133;-88
2022/06/07 04:18:15;;;;;;;2.65;2.45;;;19.00;47.90;;;;;;6194858;23;20157;-88
2022/06/07 04:20:41;;;;;;;2.30;2.00;;;19.10;48.00;;;;;;6194673;23;20176;-88
2022/06/07 04:23:07;;;;;;;2.55;2.22;;;19.10;48.00;;;;;;6195112;23;20163;-87
2022/06/07 04:25:35;;;;;;;2.30;2.10;;;19.10;47.90;;;;;;6169651;23;20149;-87
2022/06/07 04:28:01;;;;;;;2.13;1.92;;;19.00;47.90;;;;;;6194698;23;20138;-88
2022/06/07 04:30:27;;;;;;;2.72;2.22;;;19.10;48.10;;;;;;6219561;23;20573;-87
2022/06/07 04:32:53;;;;;;;3.85;2.63;;;19.10;48.20;;;;;;6194633;23;20557;-87
2022/06/07 04:35:18;;;;;;;2.55;2.13;;;19.10;48.10;;;;;;6194448;23;20140;-88
2022/06/07 04:37:45;;;;;;;2.42;2.20;;;19.00;48.20;;;;;;6220188;23;20521;-87
2022/06/07 04:40:12;;;;;;;2.45;2.03;;;19.00;48.30;;;;;;6170909;23;20150;-88
2022/06/07 04:42:38;;;;;;;2.22;2.03;;;19.10;48.30;;;;;;6194871;23;20150;-87
2022/06/07 04:45:06;;;;;;;2.28;2.08;;;19.10;48.40;;;;;;6194684;23;20134;-87
2022/06/07 04:47:33;;;;;;;2.17;1.90;;;19.10;48.40;;;;;;6170932;23;20177;-87
2022/06/07 04:49:58;;;;;;;2.25;2.00;;;19.10;48.50;;;;;;6194652;23;20187;-88
2022/06/07 04:52:24;;;;;;;2.17;1.90;;;19.10;48.40;;;;;;6194346;23;20624;-87
2022/06/07 04:54:50;;;;;;;2.10;1.90;;;19.10;48.40;;;;;;6219644;23;20148;-88
2022/06/07 04:57:15;;;;;;;2.47;2.20;;;19.10;48.40;;;;;;6219502;23;20132;-88
2022/06/07 04:59:41;;;;;;;2.63;1.95;;;19.00;48.50;;;;;;6194732;23;20149;-87
2022/06/07 05:02:07;;;;;;;2.97;2.20;;;19.00;49.60;;;;;;6169316;23;20635;-87
2022/06/07 05:04:32;;;;;;;2.00;1.70;;;19.00;48.90;;;;;;6218998;23;20196;-87
2022/06/07 05:06:58;;;;;;;2.17;1.92;;;19.10;49.10;;;;;;6219366;23;20137;-87
2022/06/07 05:09:24;;;;;;;2.10;1.90;;;19.10;49.20;;;;;;6194891;23;20639;-87
2022/06/07 05:11:51;;;;;;;3.05;2.20;;;19.10;49.10;;;;;;6197452;23;20149;-88
2022/06/07 05:14:19;;;;;;;2.03;1.83;;;19.10;49.30;;;;;;6196426;23;20146;-87
2022/06/07 05:16:45;;;;;;;2.00;1.80;;;19.10;49.40;;;;;;6196884;23;20137;-87
2022/06/07 05:19:12;;;;;;;1.70;1.60;;;19.10;49.60;;;;;;6171831;23;20149;-87
2022/06/07 05:21:37;;;;;;;2.38;2.17;;;19.10;49.70;;;;;;6196257;23;20216;-87
2022/06/07 05:24:04;;;;;;;1.70;1.60;;;19.00;49.60;;;;;;6172090;23;20227;-87
2022/06/07 05:26:37;;;;;;;2.08;1.85;;;19.10;49.80;;;;;;6196406;23;20140;-88
2022/06/07 05:29:04;;;;;;;3.13;2.17;;;19.00;50.10;;;;;;6198104;23;20169;-88
2022/06/07 05:31:30;;;;;;;2.10;1.90;;;19.10;50.00;;;;;;6221464;23;20566;-88
2022/06/07 05:33:56;;;;;;;2.25;1.65;;;19.10;50.10;;;;;;6171408;23;20199;-87
2022/06/07 05:36:22;;;;;;;2.20;1.70;;;19.10;50.30;;;;;;6196525;23;20141;-87
2022/06/07 05:38:48;;;;;;;2.03;1.73;;;19.00;50.30;;;;;;6196659;23;20130;-87
2022/06/07 05:41:18;;;;;;;2.10;1.90;;;19.10;50.20;;;;;;6196183;23;20156;-87
2022/06/07 05:43:45;;;;;;;2.13;1.85;;;19.00;50.50;;;;;;6195900;23;20149;-87
2022/06/07 05:46:10;;;;;;;2.30;1.98;;;19.10;50.60;;;;;;6171102;23;20577;-88
2022/06/07 05:48:36;;;;;;;2.10;1.88;;;19.00;50.40;;;;;;6171117;23;20232;-87
2022/06/07 05:51:02;;;;;;;1.70;1.60;;;19.00;50.30;;;;;;6221105;23;20142;-87
2022/06/07 05:53:28;;;;;;;2.10;1.90;;;19.10;50.70;;;;;;6248126;23;20564;-88
2022/06/07 05:55:54;;;;;;;2.25;1.80;;;19.10;50.70;;;;;;6171283;23;20159;-87
2022/06/07 05:58:20;;;;;;;2.08;1.80;;;19.00;50.50;;;;;;6221167;23;20216;-87
2022/06/07 06:00:46;;;;;;;2.63;2.00;;;19.10;50.50;;;;;;6247962;23;20169;-88
2022/06/07 06:03:12;;;;;;;2.15;1.95;;;19.10;50.30;;;;;;6164090;23;20208;-88
2022/06/07 06:05:44;;;;;;;2.25;2.05;;;19.10;50.40;;;;;;6141093;23;20146;-88
2022/06/07 06:11:09;;;;;;;2.03;1.83;;;19.10;50.30;;;;;;6175825;23;20193;-87
2022/06/07 06:13:35;;;;;;;2.20;2.00;;;19.20;50.40;;;;;;6168135;23;20458;-88
2022/06/07 06:16:03;;;;;;;2.28;2.08;;;19.20;50.30;;;;;;6194362;23;20171;-86
2022/06/07 06:18:28;;;;;;;1.95;1.77;;;19.10;50.30;;;;;;6169981;23;20127;-86
2022/06/07 06:20:55;;;;;;;1.70;1.60;;;19.10;50.40;;;;;;6168771;23;20200;-87
2022/06/07 06:23:21;;;;;;;2.25;2.00;;;19.20;50.40;;;;;;6169309;23;20150;-88
2022/06/07 06:25:47;;;;;;;2.30;1.90;;;19.10;50.40;;;;;;6193099;23;20145;-87
2022/06/07 06:28:13;;;;;;;2.53;2.15;;;19.10;50.60;;;;;;6168059;23;20134;-87
2022/06/07 06:30:42;;;;;;;1.73;1.63;;;19.10;50.60;;;;;;6192815;23;20209;-87
2022/06/07 06:33:08;;;;;;;2.00;1.80;;;19.20;50.70;;;;;;6169221;23;20181;-88
2022/06/07 06:35:34;;;;;;;1.70;1.60;;;19.10;50.70;;;;;;6169689;23;20214;-87
2022/06/07 06:37:59;;;;;;;2.30;1.90;;;19.10;50.80;;;;;;6169017;23;20153;-88
2022/06/07 06:40:34;;;;;;;2.40;2.10;;;19.10;50.70;;;;;;6194347;23;20205;-87
2022/06/07 06:43:00;;;;;;;2.00;1.80;;;19.10;50.90;;;;;;6171911;23;20154;-87
2022/06/07 06:45:26;;;;;;;1.60;1.50;;;19.20;50.70;;;;;;6171067;23;20232;-87
2022/06/07 06:47:53;;;;;;;1.85;1.75;;;19.20;50.60;;;;;;6143451;23;20151;-88
2022/06/07 06:50:48;;;;;;;2.10;1.90;;;19.10;50.50;;;;;;6218067;23;20165;-88
2022/06/07 06:53:41;;;;;;;2.00;1.80;;;19.20;50.50;;;;;;6175002;23;20149;-85
2022/06/07 06:56:18;;;;;;;2.53;1.98;;;19.20;50.50;;;;;;6108519;23;20160;-88
2022/06/07 06:59:18;;;;;;;1.92;1.73;;;19.30;50.40;;;;;;6110379;23;20148;-88
2022/06/07 07:01:47;;;;;;;2.15;1.92;;;19.30;50.50;;;;;;6129811;23;20235;-88
2022/06/07 07:04:16;;;;;;;1.73;1.63;;;19.30;50.30;;;;;;6152271;23;20210;-87
2022/06/07 07:06:46;;;;;;;3.33;1.88;;;19.30;50.30;;;;;;6136564;23;20242;-87
2022/06/07 07:09:11;;;;;;;2.00;1.80;;;19.20;50.40;;;;;;6136716;23;20191;-87
2022/06/07 07:11:40;;;;;;;2.28;1.90;;;19.20;50.70;;;;;;6111345;23;20158;-86
2022/06/07 07:14:09;;;;;;;2.25;1.75;;;19.20;50.70;;;;;;6184873;23;20171;-87
2022/06/07 07:16:37;;;;;;;2.10;1.90;;;19.30;50.70;;;;;;6134557;23;20355;-87
2022/06/07 07:19:04;;;;;;;2.10;1.90;;;19.20;50.80;;;;;;6153207;23;20219;-88
2022/06/07 07:21:33;;;;;;;2.25;1.90;;;19.30;50.50;;;;;;6128399;23;20510;-87
2022/06/07 07:24:08;;;;;;;1.88;1.77;;;19.40;50.50;;;;;;6132798;23;20207;-88
2022/06/07 07:26:35;;;;;;;2.13;1.92;;;19.40;50.40;;;;;;6170359;23;20177;-88
2022/06/07 07:29:03;;;;;;;2.00;1.80;;;19.40;50.50;;;;;;6173962;23;20181;-87
2022/06/07 07:31:31;;;;;;;1.70;1.60;;;19.40;50.30;;;;;;6172320;23;20237;-87
2022/06/07 07:34:00;;;;;;;4.70;2.05;;;19.30;50.30;;;;;;6222562;23;20183;-87
2022/06/07 07:36:26;;;;;;;5.30;2.15;;;19.30;50.30;;;;;;6195920;23;20472;-87
2022/06/07 07:38:53;;;;;;;14.32;2.75;;;19.30;50.50;;;;;;6172435;23;20157;-88
2022/06/07 07:41:23;;;;;;;9.50;2.22;;;19.30;50.50;;;;;;6172233;23;20145;-87
2022/06/07 07:43:59;;;;;;;9.73;2.53;;;19.30;50.70;;;;;;6197932;23;20144;-87
2022/06/07 07:46:26;;;;;;;8.98;2.63;;;19.30;50.60;;;;;;6198396;23;20132;-87
2022/06/07 07:48:52;;;;;;;8.70;2.10;;;19.20;50.50;;;;;;6171824;23;20145;-87
2022/06/07 07:51:20;;;;;;;10.20;2.25;;;19.20;50.70;;;;;;6220529;23;20134;-87
2022/06/07 07:53:47;;;;;;;4.78;2.00;;;19.30;50.70;;;;;;6195472;23;20405;-87
2022/06/07 07:56:13;;;;;;;3.85;2.17;;;19.30;50.50;;;;;;6170865;23;20163;-87
2022/06/07 07:58:39;;;;;;;5.15;1.92;;;19.30;51.10;;;;;;6194915;23;20164;-87
2022/06/07 08:01:14;;;;;;;5.50;2.00;;;19.30;50.40;;;;;;6220365;23;20130;-87
2022/06/07 08:03:40;;;;;;;2.30;1.85;;;19.30;50.70;;;;;;6165796;23;20324;-87
2022/06/07 08:06:09;;;;;;;2.67;1.80;;;19.30;50.70;;;;;;6191765;23;20164;-86
2022/06/07 08:08:35;;;;;;;4.15;2.25;;;19.40;50.60;;;;;;6211058;23;20208;-86
2022/06/07 08:11:02;;;;;;;4.35;1.70;;;19.40;50.60;;;;;;6193376;23;20567;-85
2022/06/07 08:13:28;;;;;;;5.25;1.75;;;19.30;50.70;;;;;;6187637;23;20509;-86
2022/06/07 08:15:54;;;;;;;11.93;2.10;;;19.30;50.70;;;;;;6192381;23;20149;-86
2022/06/07 08:18:19;;;;;;;5.13;1.55;;;19.30;50.60;;;;;;6217318;23;20565;-86
2022/06/07 08:20:57;;;;;;;3.88;2.13;;;19.40;50.50;;;;;;6218890;23;20134;-86
2022/06/07 08:23:28;;;;;;;4.57;1.65;;;19.40;50.30;;;;;;6191721;23;20190;-84
2022/06/07 08:25:56;;;;;;;5.05;2.08;;;19.40;50.20;;;;;;6215880;23;20161;-86
2022/06/07 08:28:21;;;;;;;3.20;1.73;;;19.50;50.20;;;;;;6214225;23;20159;-86
2022/06/07 08:30:49;;;;;;;2.28;1.60;;;19.60;50.10;;;;;;6189835;23;20507;-86
2022/06/07 08:38:44;;;;;;;3.05;1.52;;;19.60;50.00;;;;;;6215810;23;20146;-86
2022/06/07 08:41:23;;;;;;;7.10;1.73;;;19.70;49.90;;;;;;6189680;23;20154;-85
2022/06/07 08:43:55;;;;;;;5.53;1.80;;;19.60;49.80;;;;;;6214318;23;20605;-86
2022/06/07 08:46:26;;;;;;;6.57;2.00;;;19.60;49.90;;;;;;6190045;23;20139;-87
2022/06/07 08:48:54;;;;;;;5.63;1.80;;;19.60;49.90;;;;;;6189996;23;20150;-86
2022/06/07 08:51:24;;;;;;;11.85;2.47;;;19.60;49.90;;;;;;6131046;23;20151;-86
2022/06/07 08:53:52;;;;;;;22.98;2.70;;;19.60;50.00;;;;;;6096926;23;20184;-86
2022/06/07 08:56:21;;;;;;;26.70;3.63;;;19.60;50.20;;;;;;6076716;23;20531;-87
2022/06/07 08:58:49;;;;;;;39.78;3.90;;;19.60;50.40;;;;;;6101680;23;20468;-86
2022/06/07 09:01:30;;;;;;;30.92;4.13;;;19.50;50.50;;;;;;6101364;23;20242;-86
2022/06/07 09:04:06;;;;;;;24.02;3.15;;;19.50;50.40;;;;;;6077604;23;20192;-86
2022/06/07 09:06:36;;;;;;;18.85;2.70;;;19.60;50.20;;;;;;6076663;23;20189;-86
2022/06/07 09:09:03;;;;;;;15.38;2.35;;;19.60;50.90;;;;;;6075658;23;20191;-86
2022/06/07 09:14:42;;;;;;;15.75;2.55;;;19.50;50.30;;;;;;6105528;23;20560;-87
2022/06/07 09:17:28;;;;;;;15.10;2.17;;;19.60;50.30;;;;;;6102171;23;20206;-86
2022/06/07 09:19:54;;;;;;;11.35;2.60;;;19.70;50.30;;;;;;6104481;23;20671;-86
2022/06/07 09:22:29;;;;;;;8.52;2.30;;;19.70;50.20;;;;;;6114149;23;20236;-87
2022/06/07 09:25:00;;;;;;;7.68;2.22;;;19.70;50.30;;;;;;6157386;23;20631;-86
2022/06/07 09:27:27;;;;;;;9.07;2.30;;;19.60;50.30;;;;;;6168123;23;20185;-87
2022/06/07 09:29:55;;;;;;;7.65;2.38;;;19.70;50.30;;;;;;6168711;23;20169;-87
2022/06/07 09:32:28;;;;;;;13.65;2.63;;;19.70;50.40;;;;;;6191473;23;20197;-87
2022/06/07 09:35:03;;;;;;;10.52;2.53;;;19.70;50.40;;;;;;6192083;23;20147;-88
2022/06/07 09:37:38;;;;;;;7.53;2.10;;;19.70;50.60;;;;;;6192339;23;20189;-88
2022/06/07 09:40:20;;;;;;;12.38;2.42;;;19.70;50.60;;;;;;6192124;23;20137;-87
2022/06/07 09:42:52;;;;;;;7.43;2.35;;;19.70;50.50;;;;;;6215589;23;20213;-88
2022/06/07 09:45:23;;;;;;;8.85;2.30;;;19.70;50.70;;;;;;6165802;23;20146;-88
2022/06/07 09:48:18;;;;;;;7.80;2.15;;;19.70;50.70;;;;;;6160367;23;20151;-88
2022/06/07 09:54:13;;;;;;;7.55;2.33;;;19.80;50.40;;;;;;6002157;23;20158;-89
2022/06/07 09:56:58;;;;;;;8.35;2.40;;;19.80;50.30;;;;;;5990366;23;20157;-87
2022/06/07 09:59:42;;;;;;;8.10;2.53;;;19.90;50.30;;;;;;5990957;23;20191;-88
2022/06/07 10:02:38;;;;;;;12.35;2.50;;;19.90;50.30;;;;;;5932276;24;20164;-87
2022/06/07 10:05:39;;;;;;;5.93;2.30;;;19.90;50.00;;;;;;5955346;24;20194;-87
2022/06/07 10:08:38;;;;;;;10.50;2.38;;;19.90;50.30;;;;;;5932026;24;20525;-87
2022/06/07 10:11:09;;;;;;;10.15;2.40;;;19.90;50.60;;;;;;5931960;24;20192;-88
2022/06/07 10:13:57;;;;;;;5.80;2.60;;;19.80;50.20;;;;;;5956098;24;20699;-88
2022/06/07 10:16:31;;;;;;;6.45;2.22;;;19.80;50.20;;;;;;5953736;24;20195;-88
2022/06/07 10:19:38;;;;;;;8.10;2.25;;;19.80;50.60;;;;;;5953762;24;20607;-88
2022/06/07 10:22:26;;;;;;;7.75;2.30;;;19.90;50.70;;;;;;5990364;23;20256;-87
2022/06/07 10:25:18;;;;;;;7.47;2.20;;;19.90;50.50;;;;;;5981691;24;20166;-88
2022/06/07 10:27:56;;;;;;;6.22;1.92;;;19.90;50.40;;;;;;5938484;24;20155;-88
2022/06/07 10:30:48;;;;;;;5.30;2.17;;;19.90;50.30;;;;;;5973723;23;20181;-88
2022/06/07 10:33:38;;;;;;;7.15;2.20;;;19.90;50.30;;;;;;6028280;23;20582;-88
2022/06/07 10:36:18;;;;;;;6.07;2.33;;;19.90;50.30;;;;;;6043949;23;20153;-88
2022/06/07 10:39:01;;;;;;;6.30;2.03;;;20.00;50.30;;;;;;6067010;23;20141;-88
2022/06/07 10:41:50;;;;;;;8.93;2.10;;;19.90;50.30;;;;;;6043278;23;20181;-87
2022/06/07 10:44:35;;;;;;;6.10;2.10;;;19.90;50.30;;;;;;6042689;23;20569;-88
2022/06/07 10:47:23;;;;;;;2.60;1.88;;;19.90;50.30;;;;;;6013997;23;20158;-88
2022/06/07 10:49:54;;;;;;;4.43;1.80;;;19.90;50.30;;;;;;6036471;23;20756;-88
2022/06/07 10:52:44;;;;;;;4.72;2.20;;;19.90;50.20;;;;;;6037720;23;20154;-87
2022/06/07 10:55:19;;;;;;;6.18;2.30;;;19.80;50.20;;;;;;6050666;23;20153;-88
2022/06/07 10:58:18;;;;;;;5.40;2.20;;;19.80;50.50;;;;;;6072266;23;20165;-87
2022/06/07 11:00:51;;;;;;;7.18;2.20;;;19.70;50.70;;;;;;6075690;23;20613;-87
2022/06/07 11:03:31;;;;;;;9.75;2.38;;;19.60;50.70;;;;;;6048546;23;20207;-88
2022/06/07 11:09:26;;;;;;;5.78;2.20;;;19.50;50.80;;;;;;6153601;23;20142;-87
2022/06/07 11:12:00;;;;;;;6.53;2.17;;;19.70;50.90;;;;;;6130250;23;20548;-88
2022/06/07 11:14:49;;;;;;;4.65;1.90;;;19.60;50.90;;;;;;6129139;23;20147;-87
2022/06/07 11:17:30;;;;;;;6.90;2.60;;;19.60;50.90;;;;;;6167780;23;20146;-87
2022/06/07 11:19:59;;;;;;;5.07;2.10;;;19.60;50.90;;;;;;6189968;23;20200;-87
2022/06/07 11:22:31;;;;;;;6.38;2.15;;;19.50;50.90;;;;;;6165669;23;20181;-87
2022/06/07 11:24:59;;;;;;;4.95;1.95;;;19.60;51.00;;;;;;6165912;23;20154;-87
2022/06/07 11:27:26;;;;;;;4.68;2.13;;;19.60;51.00;;;;;;6189920;23;20138;-87
2022/06/07 11:30:28;;;;;;;3.97;2.20;;;19.60;51.00;;;;;;6165316;23;20174;-87
2022/06/07 11:32:56;;;;;;;5.75;2.38;;;19.60;51.00;;;;;;6165585;23;20482;-87
2022/06/07 11:35:48;;;;;;;5.80;2.38;;;19.60;51.00;;;;;;6165444;23;20142;-87
2022/06/07 11:38:25;;;;;;;7.18;2.75;;;19.60;51.10;;;;;;6216370;23;20137;-87
2022/06/07 11:41:36;;;;;;;6.88;2.17;;;19.50;51.00;;;;;;6165125;23;20184;-87
2022/06/07 11:43:54;;;;;;;7.10;2.53;;;19.60;51.20;;;;;;6194006;23;20590;-87
2022/06/07 11:46:39;;;;;;;7.57;2.35;;;19.60;51.00;;;;;;6216634;23;20137;-87
2022/06/07 11:49:30;;;;;;;7.57;2.20;;;19.60;51.40;;;;;;6190150;23;20173;-87
2022/06/07 11:52:08;;;;;;;3.67;2.08;;;19.70;51.70;;;;;;6164903;23;20517;-87
2022/06/07 11:54:44;;;;;;;5.88;2.00;;;19.70;51.30;;;;;;6167488;23;20141;-87
2022/06/07 11:57:37;;;;;;;5.63;2.33;;;19.70;51.00;;;;;;6189935;23;20199;-87
2022/06/07 12:00:37;;;;;;;3.22;1.52;;;19.70;51.00;;;;;;6165220;23;20153;-87
2022/06/07 12:03:24;;;;;;;5.85;2.10;;;19.80;51.20;;;;;;6219746;23;20192;-87
2022/06/07 12:06:11;;;;;;;6.57;1.95;;;19.80;50.90;;;;;;6197324;23;20167;-86
2022/06/07 12:09:06;;;;;;;4.82;2.03;;;19.80;51.00;;;;;;6219559;23;20129;-86
2022/06/07 12:11:40;;;;;;;7.28;2.13;;;19.80;50.90;;;;;;6124228;23;20159;-87
2022/06/07 12:14:37;;;;;;;4.53;2.15;;;19.80;51.20;;;;;;6100561;23;20175;-86
2022/06/07 12:17:17;;;;;;;2.55;1.85;;;19.80;51.00;;;;;;6104112;23;20533;-88
2022/06/07 12:19:49;;;;;;;4.97;1.77;;;19.80;51.10;;;;;;6106015;23;20139;-87
2022/06/07 12:22:18;;;;;;;6.90;2.20;;;19.80;51.20;;;;;;6085629;23;20179;-89
2022/06/07 12:24:53;;;;;;;3.63;2.28;;;19.70;51.20;;;;;;6110654;23;20465;-89
2022/06/07 12:27:24;;;;;;;5.40;2.20;;;19.70;51.20;;;;;;6114398;23;20175;-88
2022/06/07 12:30:11;;;;;;;4.05;2.10;;;19.80;51.20;;;;;;6111198;23;20175;-89
2022/06/07 12:32:40;;;;;;;3.45;1.90;;;19.80;51.50;;;;;;6086584;23;20584;-89
2022/06/07 12:35:28;;;;;;;4.07;2.17;;;19.70;51.60;;;;;;6082135;23;20588;-88
2022/06/07 12:38:24;;;;;;;3.10;1.92;;;19.80;51.70;;;;;;6105104;23;20223;-89
2022/06/07 12:41:07;;;;;;;;;;;;;;;;;;;;;
2022/06/07 12:44:19;;;;;;;5.38;2.25;;;19.70;51.90;;;;;;6013050;23;20190;-88
2022/06/07 12:47:01;;;;;;;4.20;2.00;;;19.70;51.70;;;;;;5987550;23;20154;-87
2022/06/07 12:49:46;;;;;;;4.13;2.03;;;19.70;51.90;;;;;;5985829;24;20237;-87
2022/06/07 12:52:15;;;;;;;3.30;2.00;;;19.70;52.10;;;;;;5987567;23;20598;-87
2022/06/07 12:54:46;;;;;;;3.58;1.92;;;19.70;52.20;;;;;;5964122;24;20155;-88
2022/06/07 12:57:22;;;;;;;4.43;1.95;;;19.80;52.30;;;;;;5965754;24;20295;-87
2022/06/07 13:00:00;;;;;;;4.13;2.15;;;19.70;52.40;;;;;;5984284;24;20268;-87
2022/06/07 13:02:34;;;;;;;3.30;2.00;;;19.80;52.40;;;;;;5961965;24;20170;-86
2022/06/07 13:05:17;;;;;;;5.03;2.05;;;19.80;52.40;;;;;;5996983;23;20286;-87
2022/06/07 13:08:27;;;;;;;2.58;2.10;;;19.80;52.40;;;;;;5978451;24;20250;-88
2022/06/07 13:10:52;;;;;;;3.95;2.10;;;19.70;52.50;;;;;;5956140;24;20192;-87
2022/06/07 13:13:31;;;;;;;5.25;2.17;;;19.70;52.50;;;;;;5935332;24;20246;-87
2022/06/07 13:16:13;;;;;;;3.50;2.17;;;19.80;52.60;;;;;;5960663;24;20162;-87
2022/06/07 13:18:46;;;;;;;3.35;2.10;;;19.80;52.70;;;;;;5968578;23;20577;-87
2022/06/07 13:21:35;;;;;;;4.75;2.38;;;19.80;52.60;;;;;;6039747;23;20160;-87
2022/06/07 13:24:02;;;;;;;5.20;2.15;;;19.80;52.90;;;;;;6001926;23;20241;-87
2022/06/07 13:26:43;;;;;;;4.57;2.38;;;19.70;53.00;;;;;;6021074;23;20168;-87
2022/06/07 13:29:20;;;;;;;7.63;2.40;;;19.70;53.10;;;;;;6043845;23;20157;-86
2022/06/07 13:32:20;;;;;;;4.57;2.20;;;19.70;53.50;;;;;;6038664;23;20595;-87
2022/06/07 13:34:52;;;;;;;6.95;2.38;;;19.70;53.70;;;;;;6062114;23;20153;-87
2022/06/07 13:37:28;;;;;;;6.72;2.50;;;19.70;54.00;;;;;;6057076;23;20156;-87